Time;durP1;ratioP1;P1;durP2;ratioP2;P2;SDS_P1;SDS_P2;PMS_P1;PMS_P2;Temp;Humidity;BMP_temperature;BMP_pressure;BME280_temperature;BME280_humidity;BME280_pressure;Samples;Min_cycle;Max_cycle;Signal;HPM_P1;HPM_P2
2024/03/08 00:02:24;;;;;;;20.05;14.40;;;3.10;99.90;;;;;;5035316;28;20422;-80
2024/03/08 00:04:50;;;;;;;19.95;14.20;;;3.10;99.90;;;;;;5035295;28;20431;-79
2024/03/08 00:07:15;;;;;;;19.55;13.75;;;3.10;99.90;;;;;;5031922;28;20403;-78
2024/03/08 00:09:41;;;;;;;17.85;13.70;;;3.10;99.90;;;;;;5027501;28;20395;-78
2024/03/08 00:12:06;;;;;;;19.60;12.87;;;3.10;99.90;;;;;;5025581;28;20389;-79
2024/03/08 00:14:33;;;;;;;18.42;13.25;;;3.10;99.90;;;;;;5016330;28;20395;-79
2024/03/08 00:16:58;;;;;;;18.60;13.10;;;3.00;99.90;;;;;;4996323;28;20396;-79
2024/03/08 00:19:24;;;;;;;19.53;13.10;;;2.80;99.90;;;;;;5016201;28;20387;-79
2024/03/08 00:21:49;;;;;;;19.63;13.27;;;2.90;99.90;;;;;;5029064;28;20472;-79
2024/03/08 00:24:15;;;;;;;19.77;12.90;;;2.80;99.90;;;;;;5015702;28;20622;-79
2024/03/08 00:26:43;;;;;;;17.77;13.50;;;2.70;99.90;;;;;;5032242;28;20410;-78
2024/03/08 00:29:08;;;;;;;18.80;13.20;;;2.80;99.90;;;;;;5023562;28;20426;-79
2024/03/08 00:31:34;;;;;;;18.03;13.70;;;2.80;99.90;;;;;;5038526;28;20425;-79
2024/03/08 00:34:00;;;;;;;17.10;12.63;;;2.70;99.90;;;;;;5040009;28;20394;-79
2024/03/08 00:36:26;;;;;;;19.03;13.60;;;2.60;99.90;;;;;;5037608;28;20394;-79
2024/03/08 00:38:51;;;;;;;19.00;13.87;;;2.70;99.90;;;;;;5036274;28;20818;-80
2024/03/08 00:41:17;;;;;;;18.20;13.53;;;2.80;99.90;;;;;;5035933;28;20395;-79
2024/03/08 00:43:42;;;;;;;20.53;13.97;;;2.80;99.90;;;;;;5044159;28;20410;-79
2024/03/08 00:46:08;;;;;;;21.00;14.23;;;2.80;99.90;;;;;;5048289;28;20478;-78
2024/03/08 00:48:33;;;;;;;17.85;13.40;;;2.80;99.90;;;;;;5049748;28;20397;-79
2024/03/08 00:50:59;;;;;;;17.27;12.77;;;2.90;99.90;;;;;;5039048;28;20806;-79
2024/03/08 00:53:24;;;;;;;18.48;13.60;;;2.70;99.90;;;;;;5034784;28;20488;-79
2024/03/08 00:55:50;;;;;;;18.48;13.52;;;2.80;99.90;;;;;;5034113;28;20478;-79
2024/03/08 00:58:15;;;;;;;16.52;12.60;;;3.80;99.90;;;;;;5008445;28;20395;-79
2024/03/08 01:00:41;;;;;;;18.75;13.82;;;2.50;99.90;;;;;;5034063;28;20387;-79
2024/03/08 01:03:07;;;;;;;16.63;12.68;;;2.50;99.90;;;;;;5033657;28;20465;-78
2024/03/08 01:05:33;;;;;;;18.58;14.48;;;2.40;99.90;;;;;;5015900;28;20391;-79
2024/03/08 01:07:59;;;;;;;19.38;13.68;;;2.50;99.90;;;;;;5034260;28;20760;-79
2024/03/08 01:10:24;;;;;;;18.43;14.03;;;2.50;99.90;;;;;;5034439;28;20422;-79
2024/03/08 01:12:50;;;;;;;17.83;13.60;;;2.50;99.90;;;;;;5033552;28;20397;-79
2024/03/08 01:15:15;;;;;;;16.40;12.77;;;2.50;99.90;;;;;;5033888;28;20403;-78
2024/03/08 01:17:41;;;;;;;19.17;14.18;;;2.40;99.90;;;;;;5016978;28;20403;-79
2024/03/08 01:20:10;;;;;;;19.58;14.15;;;2.40;99.90;;;;;;5017911;28;20401;-79
2024/03/08 01:22:36;;;;;;;17.67;12.80;;;2.40;99.90;;;;;;5035614;28;20486;-79
2024/03/08 01:25:03;;;;;;;16.53;12.63;;;2.20;99.90;;;;;;5013527;28;20453;-78
2024/03/08 01:27:30;;;;;;;17.25;13.00;;;2.40;99.90;;;;;;5013003;28;21112;-78
2024/03/08 01:29:56;;;;;;;19.42;13.80;;;2.40;99.90;;;;;;5032210;28;20387;-78
2024/03/08 01:32:23;;;;;;;18.27;14.07;;;2.40;99.90;;;;;;5031241;28;20394;-78
2024/03/08 01:34:48;;;;;;;17.63;12.95;;;2.40;99.90;;;;;;5032067;28;20375;-78
2024/03/08 01:37:14;;;;;;;18.13;14.37;;;2.10;99.90;;;;;;5032187;28;20387;-78
2024/03/08 01:39:40;;;;;;;18.30;13.10;;;2.20;99.90;;;;;;5032294;28;20395;-78
2024/03/08 01:42:05;;;;;;;19.23;13.63;;;2.20;99.90;;;;;;5032012;28;20410;-78
2024/03/08 01:44:31;;;;;;;18.23;13.77;;;2.20;99.90;;;;;;5032244;28;20501;-79
2024/03/08 01:46:56;;;;;;;18.17;14.17;;;2.10;99.90;;;;;;5014028;28;20414;-79
2024/03/08 01:49:25;;;;;;;21.23;14.87;;;2.00;99.90;;;;;;5032418;28;20890;-79
2024/03/08 01:51:51;;;;;;;19.52;13.80;;;1.90;99.90;;;;;;5032183;28;20401;-77
2024/03/08 01:54:18;;;;;;;18.40;13.10;;;2.00;99.90;;;;;;5013915;28;20419;-78
2024/03/08 01:56:43;;;;;;;19.42;14.02;;;2.00;99.90;;;;;;5031977;28;20414;-78
2024/03/08 01:59:09;;;;;;;20.20;14.23;;;2.00;99.90;;;;;;5032034;28;20391;-78
2024/03/08 02:01:35;;;;;;;19.73;13.77;;;1.90;99.90;;;;;;5014057;28;20887;-78
2024/03/08 02:04:00;;;;;;;22.20;14.00;;;1.80;99.90;;;;;;5013701;28;20398;-79
2024/03/08 02:06:26;;;;;;;19.60;14.20;;;1.80;99.90;;;;;;5014298;28;20474;-78
2024/03/08 02:08:52;;;;;;;19.50;14.20;;;1.90;99.90;;;;;;5033605;28;20387;-77
2024/03/08 02:11:18;;;;;;;18.80;14.07;;;1.90;99.90;;;;;;5032662;28;20394;-79
2024/03/08 02:13:44;;;;;;;18.48;12.93;;;2.00;99.90;;;;;;5013499;28;20399;-79
2024/03/08 02:16:10;;;;;;;16.92;12.52;;;1.90;99.90;;;;;;5031495;28;20846;-78
2024/03/08 02:18:36;;;;;;;18.27;13.77;;;2.00;99.90;;;;;;5030877;28;20823;-80
2024/03/08 02:21:03;;;;;;;20.07;14.73;;;1.60;99.90;;;;;;5033796;28;20391;-79
2024/03/08 02:23:29;;;;;;;18.40;14.10;;;1.90;99.90;;;;;;5014789;28;20410;-80
2024/03/08 02:25:56;;;;;;;19.88;14.65;;;1.80;99.90;;;;;;5029851;28;20387;-79
2024/03/08 02:28:22;;;;;;;19.90;13.85;;;1.70;99.90;;;;;;5030679;28;20410;-79
2024/03/08 02:30:49;;;;;;;21.00;13.50;;;1.60;99.90;;;;;;5035818;28;20395;-79
2024/03/08 02:33:18;;;;;;;20.27;13.27;;;1.70;99.90;;;;;;5035790;28;20426;-79
2024/03/08 02:35:47;;;;;;;19.30;14.38;;;1.80;99.90;;;;;;5018004;28;20441;-79
2024/03/08 02:38:20;;;;;;;19.85;14.15;;;1.60;99.90;;;;;;5033192;28;20409;-78
2024/03/08 02:40:47;;;;;;;20.55;13.60;;;1.60;99.90;;;;;;5015689;28;20390;-78
2024/03/08 02:43:14;;;;;;;22.85;14.40;;;1.50;99.90;;;;;;5035514;28;20470;-79
2024/03/08 02:45:41;;;;;;;21.00;14.43;;;1.50;99.90;;;;;;5037067;28;20391;-80
2024/03/08 02:48:07;;;;;;;19.85;14.45;;;1.40;99.90;;;;;;5036891;28;20780;-78
2024/03/08 02:50:34;;;;;;;20.15;13.90;;;1.60;99.90;;;;;;5020180;28;20410;-79
2024/03/08 02:53:00;;;;;;;21.15;14.98;;;1.50;99.90;;;;;;5018996;28;20402;-79
2024/03/08 02:55:26;;;;;;;19.85;14.35;;;1.50;99.90;;;;;;5036647;28;20390;-80
2024/03/08 02:57:54;;;;;;;20.37;13.40;;;1.50;99.90;;;;;;5036784;28;20418;-80
2024/03/08 03:00:21;;;;;;;20.85;14.65;;;1.40;99.90;;;;;;5037954;28;20391;-79
2024/03/08 03:02:46;;;;;;;24.95;14.90;;;1.60;99.90;;;;;;5036204;28;20398;-79
2024/03/08 03:05:12;;;;;;;19.53;13.50;;;1.60;99.90;;;;;;5036641;28;20383;-79
2024/03/08 03:07:38;;;;;;;23.37;15.70;;;1.50;99.90;;;;;;5035781;28;20484;-79
2024/03/08 03:10:04;;;;;;;21.47;14.80;;;1.90;99.90;;;;;;5017981;28;20876;-79
2024/03/08 03:12:31;;;;;;;22.05;15.15;;;1.00;99.90;;;;;;5032343;28;20410;-79
2024/03/08 03:14:57;;;;;;;22.25;15.05;;;1.60;99.90;;;;;;5043423;28;20414;-79
2024/03/08 03:17:24;;;;;;;22.92;15.90;;;1.60;99.90;;;;;;5029953;28;20395;-79
2024/03/08 03:19:51;;;;;;;21.33;14.00;;;1.80;99.90;;;;;;5046285;28;20399;-79
2024/03/08 03:22:18;;;;;;;19.17;14.00;;;1.50;99.90;;;;;;5037726;28;20460;-79
2024/03/08 03:24:43;;;;;;;19.75;14.18;;;1.60;99.90;;;;;;5031987;28;20423;-79
2024/03/08 03:27:12;;;;;;;18.87;13.40;;;1.60;99.90;;;;;;5016234;28;20498;-79
2024/03/08 03:29:45;;;;;;;19.27;13.75;;;1.60;99.90;;;;;;5035433;28;20408;-79
2024/03/08 03:32:11;;;;;;;17.70;13.52;;;1.50;99.90;;;;;;5035749;28;20551;-79
2024/03/08 03:34:37;;;;;;;20.35;13.77;;;1.50;99.90;;;;;;5037328;28;20395;-80
2024/03/08 03:37:04;;;;;;;19.83;12.80;;;1.40;99.90;;;;;;5041669;28;20414;-78
2024/03/08 03:39:34;;;;;;;20.98;13.75;;;1.50;99.90;;;;;;5040331;28;20430;-79
2024/03/08 03:42:01;;;;;;;22.38;13.57;;;1.40;99.90;;;;;;5021708;28;20391;-79
2024/03/08 03:44:27;;;;;;;19.58;13.65;;;1.30;99.90;;;;;;5018293;28;20458;-79
2024/03/08 03:46:53;;;;;;;20.60;14.60;;;1.30;99.90;;;;;;5035201;28;20450;-79
2024/03/08 03:49:19;;;;;;;21.70;14.90;;;1.30;99.90;;;;;;5039157;28;20445;-80
2024/03/08 03:51:45;;;;;;;23.13;14.95;;;1.40;99.90;;;;;;5021759;28;20423;-79
2024/03/08 03:54:11;;;;;;;20.85;14.45;;;1.10;99.90;;;;;;5039762;28;20417;-79
2024/03/08 03:56:36;;;;;;;22.90;14.45;;;1.30;99.90;;;;;;5037718;28;20394;-79
2024/03/08 03:59:02;;;;;;;19.65;13.43;;;1.30;99.90;;;;;;5035085;28;20830;-80
2024/03/08 04:01:29;;;;;;;22.20;14.80;;;1.40;99.90;;;;;;5044973;28;20953;-78
2024/03/08 04:03:54;;;;;;;19.27;13.55;;;1.30;99.90;;;;;;5033674;28;20567;-79
2024/03/08 04:06:20;;;;;;;23.27;14.40;;;1.50;99.90;;;;;;5050608;28;20507;-79
2024/03/08 04:08:46;;;;;;;19.02;14.05;;;1.30;99.90;;;;;;5046856;28;20414;-80
2024/03/08 04:11:11;;;;;;;19.55;13.13;;;1.40;99.90;;;;;;5043350;28;20383;-79
2024/03/08 04:13:37;;;;;;;18.70;13.15;;;1.30;99.90;;;;;;5018806;28;20495;-80
2024/03/08 04:16:07;;;;;;;19.98;13.77;;;1.10;99.90;;;;;;5033641;28;20395;-80
2024/03/08 04:18:35;;;;;;;21.63;14.20;;;1.20;99.90;;;;;;5034096;28;20497;-79
2024/03/08 04:21:01;;;;;;;24.50;14.15;;;1.20;99.90;;;;;;5004903;28;20419;-80
2024/03/08 04:23:28;;;;;;;19.27;14.10;;;1.00;99.90;;;;;;5014891;28;20389;-79
2024/03/08 04:25:54;;;;;;;20.75;13.70;;;1.10;99.90;;;;;;5026810;28;20399;-79
2024/03/08 04:28:19;;;;;;;20.05;14.15;;;1.10;99.90;;;;;;5020675;28;20462;-79
2024/03/08 04:30:46;;;;;;;21.20;14.02;;;1.10;99.90;;;;;;5015248;28;20396;-78
2024/03/08 04:33:11;;;;;;;20.10;13.65;;;1.00;99.90;;;;;;5035097;28;20388;-79
2024/03/08 04:35:37;;;;;;;20.02;13.77;;;1.10;99.90;;;;;;5024732;28;20806;-79
2024/03/08 04:38:05;;;;;;;22.57;14.43;;;1.20;99.90;;;;;;5040127;28;20403;-79
2024/03/08 04:40:31;;;;;;;20.20;13.97;;;1.20;99.90;;;;;;5019473;28;20407;-79
2024/03/08 04:42:58;;;;;;;20.55;14.27;;;1.10;99.90;;;;;;5025229;28;20384;-80
2024/03/08 04:45:25;;;;;;;21.83;14.30;;;1.00;99.90;;;;;;5016597;28;20400;-79
2024/03/08 04:47:52;;;;;;;20.10;13.80;;;0.90;99.90;;;;;;5033895;28;20535;-79
2024/03/08 04:50:18;;;;;;;22.70;15.00;;;0.80;99.90;;;;;;5016974;28;20429;-80
2024/03/08 04:52:43;;;;;;;20.23;14.65;;;1.00;99.90;;;;;;5033835;28;20410;-79
2024/03/08 04:55:09;;;;;;;20.08;14.23;;;1.10;99.90;;;;;;5034016;28;21047;-79
2024/03/08 04:57:35;;;;;;;21.67;14.13;;;1.00;99.90;;;;;;5033776;28;20409;-80
2024/03/08 05:00:04;;;;;;;19.80;13.63;;;1.10;99.90;;;;;;5030493;28;20472;-78
2024/03/08 05:02:29;;;;;;;20.30;13.80;;;0.90;99.90;;;;;;5030335;28;20378;-78
2024/03/08 05:04:55;;;;;;;19.20;12.95;;;1.00;99.90;;;;;;5034385;28;20421;-79
2024/03/08 05:07:20;;;;;;;20.63;12.85;;;0.90;99.90;;;;;;5032807;28;20411;-80
2024/03/08 05:09:51;;;;;;;18.08;13.43;;;0.90;99.90;;;;;;5033673;28;20394;-80
2024/03/08 05:12:17;;;;;;;19.90;13.10;;;1.00;99.90;;;;;;5033689;28;20830;-79
2024/03/08 05:14:43;;;;;;;20.00;13.23;;;1.10;99.90;;;;;;5033510;28;20473;-80
2024/03/08 05:17:09;;;;;;;17.65;13.02;;;1.20;99.90;;;;;;5033186;28;20517;-79
2024/03/08 05:19:36;;;;;;;20.33;13.00;;;1.10;99.90;;;;;;5033759;28;20879;-79
2024/03/08 05:22:02;;;;;;;18.38;13.32;;;1.00;99.90;;;;;;5033787;28;20770;-79
2024/03/08 05:24:29;;;;;;;21.33;14.30;;;0.90;99.90;;;;;;5030516;28;20396;-79
2024/03/08 05:26:55;;;;;;;21.70;14.27;;;1.00;99.90;;;;;;5029641;28;20450;-79
2024/03/08 05:29:20;;;;;;;21.33;14.60;;;1.00;99.90;;;;;;5013492;28;20468;-79
2024/03/08 05:31:47;;;;;;;20.90;13.87;;;0.70;99.90;;;;;;5020343;28;20389;-77
2024/03/08 05:34:14;;;;;;;20.90;14.40;;;1.00;99.90;;;;;;5037097;28;20401;-79
2024/03/08 05:36:40;;;;;;;21.35;14.13;;;1.00;99.90;;;;;;5030090;28;20406;-79
2024/03/08 05:39:06;;;;;;;20.38;14.68;;;1.10;99.90;;;;;;5042486;28;20496;-80
2024/03/08 05:41:32;;;;;;;22.00;14.27;;;1.00;99.90;;;;;;5034062;28;20776;-82
2024/03/08 05:43:57;;;;;;;19.55;14.10;;;1.00;99.90;;;;;;5033589;28;20505;-78
2024/03/08 05:46:23;;;;;;;22.83;15.20;;;0.90;99.90;;;;;;5030929;28;20414;-79
2024/03/08 05:48:48;;;;;;;21.65;14.00;;;0.80;99.90;;;;;;5023781;28;20855;-80
2024/03/08 05:51:14;;;;;;;19.45;13.75;;;0.90;99.90;;;;;;5035416;28;20402;-79
2024/03/08 05:53:40;;;;;;;20.65;13.65;;;0.90;99.90;;;;;;5015816;28;20421;-78
2024/03/08 05:56:05;;;;;;;18.25;13.30;;;1.00;99.90;;;;;;5014665;28;20799;-78
2024/03/08 05:58:31;;;;;;;21.05;14.07;;;1.00;99.90;;;;;;5013002;28;20449;-78
2024/03/08 06:00:56;;;;;;;19.50;13.80;;;1.00;99.90;;;;;;5032976;28;20431;-81
2024/03/08 06:03:22;;;;;;;24.47;14.07;;;0.90;99.90;;;;;;5031461;28;20398;-79
2024/03/08 06:05:49;;;;;;;20.73;14.77;;;1.00;99.90;;;;;;5030229;28;20400;-80
2024/03/08 06:08:14;;;;;;;22.95;15.00;;;0.80;99.90;;;;;;5017484;28;20463;-78
2024/03/08 06:10:40;;;;;;;20.20;14.57;;;0.90;99.90;;;;;;5033227;28;20478;-79
2024/03/08 06:13:06;;;;;;;17.73;13.30;;;0.90;99.90;;;;;;5034197;28;20881;-80
2024/03/08 06:15:32;;;;;;;20.70;13.90;;;0.80;99.90;;;;;;5036376;28;20897;-77
2024/03/08 06:17:57;;;;;;;22.00;15.07;;;0.90;99.90;;;;;;5051336;22;20805;-82
2024/03/08 06:20:26;;;;;;;19.03;13.50;;;0.90;99.90;;;;;;5065429;28;20438;-83
2024/03/08 06:22:51;;;;;;;20.42;13.95;;;0.80;99.90;;;;;;5043061;28;20404;-83
2024/03/08 06:25:17;;;;;;;20.97;14.60;;;0.90;99.90;;;;;;5036330;28;20381;-83
2024/03/08 06:27:43;;;;;;;19.83;13.40;;;0.90;99.90;;;;;;5036311;28;20590;-83
2024/03/08 06:30:10;;;;;;;20.45;14.27;;;1.00;99.90;;;;;;5031611;28;20435;-83
2024/03/08 06:32:39;;;;;;;18.83;13.85;;;1.00;99.90;;;;;;5037052;28;20395;-82
2024/03/08 06:35:10;;;;;;;19.52;14.05;;;0.80;99.90;;;;;;5039824;28;20403;-83
2024/03/08 06:37:35;;;;;;;20.92;14.55;;;1.00;99.90;;;;;;5041511;28;20395;-83
2024/03/08 06:40:03;;;;;;;19.33;14.23;;;1.10;99.90;;;;;;5023621;28;20401;-83
2024/03/08 06:42:29;;;;;;;17.70;13.05;;;1.10;99.90;;;;;;5040450;28;20460;-82
2024/03/08 06:44:59;;;;;;;19.52;14.35;;;1.10;99.90;;;;;;5020910;28;20417;-82
2024/03/08 06:47:25;;;;;;;17.48;13.00;;;1.20;99.90;;;;;;5023632;28;20426;-83
2024/03/08 06:49:51;;;;;;;20.30;13.05;;;1.20;99.90;;;;;;5034346;28;20424;-81
2024/03/08 06:52:17;;;;;;;17.90;13.23;;;1.30;99.90;;;;;;5043867;28;20387;-80
2024/03/08 06:54:43;;;;;;;16.42;12.73;;;1.30;99.90;;;;;;5056155;28;20411;-81
2024/03/08 06:57:10;;;;;;;18.70;12.57;;;1.20;99.90;;;;;;5035339;28;20402;-80
2024/03/08 06:59:36;;;;;;;17.85;12.38;;;1.50;99.90;;;;;;5017693;28;20481;-81
2024/03/08 07:02:02;;;;;;;17.53;12.33;;;1.40;99.90;;;;;;5032205;28;20431;-81
2024/03/08 07:04:29;;;;;;;20.05;14.07;;;1.60;99.90;;;;;;5019384;28;20415;-81
2024/03/08 07:06:56;;;;;;;17.98;13.63;;;1.80;99.90;;;;;;5015200;28;20414;-81
2024/03/08 07:09:22;;;;;;;22.15;14.55;;;1.60;99.90;;;;;;5039590;28;20402;-81
2024/03/08 07:11:47;;;;;;;22.70;14.17;;;1.90;99.90;;;;;;5040788;28;20403;-82
2024/03/08 07:14:15;;;;;;;18.03;13.80;;;1.90;99.90;;;;;;5038644;28;20400;-82
2024/03/08 07:16:41;;;;;;;19.73;14.10;;;2.00;99.90;;;;;;5028100;28;20406;-81
2024/03/08 07:19:07;;;;;;;18.02;13.65;;;2.10;99.90;;;;;;5044884;28;20403;-82
2024/03/08 07:21:32;;;;;;;16.55;13.02;;;2.30;99.90;;;;;;5048685;28;20414;-81
2024/03/08 07:24:09;;;;;;;16.33;12.47;;;2.40;99.90;;;;;;5049058;28;20435;-81
2024/03/08 07:26:35;;;;;;;18.67;12.75;;;2.30;99.90;;;;;;5029741;28;20426;-81
2024/03/08 07:29:00;;;;;;;18.93;13.33;;;2.50;99.90;;;;;;5035859;28;20404;-80
2024/03/08 07:33:53;;;;;;;15.85;11.50;;;2.60;99.90;;;;;;5040551;28;20391;-82
2024/03/08 07:36:22;;;;;;;17.23;12.27;;;2.60;99.90;;;;;;5021182;28;20950;-81
2024/03/08 07:38:47;;;;;;;16.60;11.50;;;2.70;99.90;;;;;;5038982;28;20516;-82
2024/03/08 07:41:14;;;;;;;16.03;11.97;;;2.80;99.90;;;;;;5021857;28;20430;-81
2024/03/08 07:43:40;;;;;;;16.25;11.77;;;2.90;99.90;;;;;;5020901;28;20391;-80
2024/03/08 07:46:05;;;;;;;16.57;11.80;;;3.20;99.90;;;;;;5035773;28;20390;-79
2024/03/08 07:48:31;;;;;;;16.67;11.53;;;3.10;99.90;;;;;;5038700;28;20474;-81
2024/03/08 07:50:56;;;;;;;14.17;11.20;;;3.20;99.90;;;;;;5053976;28;20398;-80
2024/03/08 07:53:24;;;;;;;14.43;10.93;;;3.10;99.90;;;;;;5053813;28;20399;-80
2024/03/08 07:55:49;;;;;;;15.57;11.95;;;3.30;99.90;;;;;;5049740;28;20387;-80
2024/03/08 07:58:15;;;;;;;13.00;10.70;;;3.30;99.90;;;;;;5043414;28;20415;-80
2024/03/08 08:00:42;;;;;;;15.00;11.20;;;3.50;99.90;;;;;;5039366;28;20416;-81
2024/03/08 08:03:08;;;;;;;13.75;10.65;;;3.70;99.90;;;;;;5038271;28;20402;-81
2024/03/08 08:05:35;;;;;;;13.95;9.50;;;3.70;99.90;;;;;;5021317;28;20407;-81
2024/03/08 08:08:10;;;;;;;13.57;10.80;;;3.80;99.90;;;;;;5027940;28;20407;-81
2024/03/08 08:10:37;;;;;;;13.43;10.73;;;4.00;99.90;;;;;;5047877;28;20399;-79
2024/03/08 08:13:04;;;;;;;16.52;10.90;;;3.90;99.90;;;;;;5030878;28;20398;-82
2024/03/08 08:15:29;;;;;;;15.85;11.80;;;4.30;99.90;;;;;;5029061;28;20398;-81
2024/03/08 08:17:55;;;;;;;18.27;12.93;;;4.40;99.90;;;;;;5047992;28;20407;-81
2024/03/08 08:20:21;;;;;;;20.53;13.00;;;4.30;99.90;;;;;;5044337;28;20414;-81
2024/03/08 08:22:48;;;;;;;24.83;13.15;;;4.60;99.90;;;;;;5024974;28;20906;-82
2024/03/08 08:25:15;;;;;;;14.18;11.40;;;4.80;99.90;;;;;;5024751;28;20478;-80
2024/03/08 08:27:42;;;;;;;17.88;13.15;;;4.80;99.90;;;;;;5025123;28;20414;-81
2024/03/08 08:30:09;;;;;;;17.10;12.43;;;4.90;99.90;;;;;;5044906;28;20866;-81
2024/03/08 08:32:36;;;;;;;19.23;14.10;;;5.00;99.90;;;;;;5044906;28;20379;-82
2024/03/08 08:35:02;;;;;;;21.40;14.85;;;5.20;99.90;;;;;;5026714;28;20535;-80
2024/03/08 08:37:28;;;;;;;20.45;15.68;;;5.00;99.90;;;;;;5042912;28;20387;-81
2024/03/08 08:39:54;;;;;;;20.25;15.52;;;5.20;99.90;;;;;;5042519;28;20474;-81
2024/03/08 08:42:19;;;;;;;20.30;15.10;;;5.20;99.90;;;;;;5041904;28;20399;-82
2024/03/08 08:44:46;;;;;;;21.17;15.48;;;5.20;99.90;;;;;;5042367;28;20413;-81
2024/03/08 08:47:13;;;;;;;22.77;15.55;;;5.10;99.90;;;;;;5041609;28;20406;-81
2024/03/08 08:49:38;;;;;;;19.60;14.88;;;4.90;99.90;;;;;;5041934;28;20388;-81
2024/03/08 08:52:04;;;;;;;19.65;15.70;;;5.00;99.90;;;;;;5041744;28;20383;-81
2024/03/08 08:54:29;;;;;;;19.10;14.18;;;5.30;99.90;;;;;;5040980;28;20409;-81
2024/03/08 08:56:55;;;;;;;20.70;13.40;;;5.40;99.90;;;;;;5022809;28;20395;-82
2024/03/08 08:59:22;;;;;;;21.97;15.17;;;5.40;99.90;;;;;;5042420;28;20917;-82
2024/03/08 09:01:48;;;;;;;21.37;14.70;;;5.60;99.90;;;;;;5041583;28;20877;-80
2024/03/08 09:04:13;;;;;;;21.30;14.70;;;5.40;99.90;;;;;;5040526;28;20481;-82
2024/03/08 09:06:41;;;;;;;17.30;13.40;;;5.30;99.90;;;;;;5022471;28;20429;-82
2024/03/08 09:09:09;;;;;;;17.45;13.40;;;5.70;99.90;;;;;;5022930;28;20395;-81
2024/03/08 09:11:34;;;;;;;17.02;14.05;;;5.80;99.90;;;;;;5040305;28;20391;-80
2024/03/08 09:14:01;;;;;;;18.73;13.17;;;5.80;99.90;;;;;;5046291;28;20391;-80
2024/03/08 09:16:27;;;;;;;17.42;13.57;;;5.90;99.90;;;;;;5028798;28;20423;-80
2024/03/08 09:18:52;;;;;;;18.88;13.80;;;5.80;99.90;;;;;;5034477;28;20456;-80
2024/03/08 09:21:18;;;;;;;18.50;13.10;;;5.80;99.90;;;;;;5031567;28;20394;-81
2024/03/08 09:23:44;;;;;;;17.80;13.23;;;5.80;99.90;;;;;;5029231;28;20394;-82
2024/03/08 09:26:12;;;;;;;16.63;13.85;;;6.00;99.90;;;;;;5049190;28;20421;-81
2024/03/08 09:28:38;;;;;;;16.38;12.57;;;5.90;99.90;;;;;;5048147;28;20411;-82
2024/03/08 09:31:05;;;;;;;17.90;13.25;;;6.10;99.90;;;;;;5032003;28;20388;-81
2024/03/08 09:33:31;;;;;;;19.20;13.30;;;6.20;99.90;;;;;;5035370;28;20379;-81
2024/03/08 09:35:57;;;;;;;17.50;12.25;;;6.20;99.90;;;;;;5051937;28;20387;-80
2024/03/08 09:38:24;;;;;;;17.40;12.97;;;6.30;99.90;;;;;;5034382;28;20392;-81
2024/03/08 09:40:51;;;;;;;17.42;12.70;;;6.40;99.90;;;;;;5035755;28;20398;-80
2024/03/08 09:43:18;;;;;;;14.35;11.18;;;6.40;99.90;;;;;;5052747;28;20419;-82
2024/03/08 09:45:46;;;;;;;15.60;11.35;;;6.40;99.90;;;;;;5056169;28;20414;-81
2024/03/08 09:48:13;;;;;;;14.40;11.40;;;6.40;99.90;;;;;;5034892;28;20399;-82
2024/03/08 09:50:42;;;;;;;14.80;11.00;;;6.60;99.90;;;;;;5036384;28;20371;-80
2024/03/08 09:53:09;;;;;;;13.70;10.40;;;6.50;99.90;;;;;;5026106;28;20836;-82
2024/03/08 09:55:36;;;;;;;13.40;11.00;;;6.40;99.90;;;;;;5031340;28;20423;-82
2024/03/08 10:00:50;;;;;;;14.63;11.68;;;6.70;99.90;;;;;;5043347;28;20401;-81
2024/03/08 10:03:16;;;;;;;14.98;11.68;;;6.90;99.90;;;;;;5025820;28;20415;-81
2024/03/08 10:05:41;;;;;;;15.82;11.52;;;6.80;99.90;;;;;;5043802;28;20391;-82
2024/03/08 10:08:08;;;;;;;14.93;11.10;;;6.80;99.90;;;;;;5026273;28;20410;-81
2024/03/08 10:10:34;;;;;;;14.68;11.48;;;7.00;99.90;;;;;;5043091;28;20386;-81
2024/03/08 10:13:00;;;;;;;15.90;11.80;;;7.10;99.90;;;;;;5024502;28;20418;-82
2024/03/08 10:15:29;;;;;;;15.30;11.75;;;7.00;99.90;;;;;;5024805;28;20513;-81
2024/03/08 10:17:56;;;;;;;13.57;11.07;;;7.10;99.90;;;;;;5041492;28;20763;-82
2024/03/08 10:20:23;;;;;;;13.65;10.88;;;6.70;99.90;;;;;;5041452;28;20751;-80
2024/03/08 10:22:49;;;;;;;14.32;11.13;;;7.40;99.90;;;;;;5021267;28;20414;-82
2024/03/08 10:25:15;;;;;;;12.48;10.40;;;7.50;99.90;;;;;;5022345;28;20387;-81
2024/03/08 10:27:41;;;;;;;14.02;11.43;;;7.60;99.90;;;;;;5041512;28;20410;-82
2024/03/08 10:30:12;;;;;;;13.93;11.70;;;7.70;99.90;;;;;;5022649;28;20922;-82
2024/03/08 10:32:38;;;;;;;13.38;10.82;;;7.80;99.90;;;;;;5039499;28;20441;-81
2024/03/08 10:35:04;;;;;;;15.40;12.18;;;7.30;99.90;;;;;;5021320;28;20390;-82
2024/03/08 10:37:33;;;;;;;13.18;10.50;;;7.70;99.90;;;;;;5040562;28;20407;-81
2024/03/08 10:40:10;;;;;;;15.38;11.40;;;7.70;99.90;;;;;;5041854;28;20395;-82
2024/03/08 10:42:42;;;;;;;14.73;11.40;;;7.80;99.90;;;;;;5023419;28;20387;-81
2024/03/08 10:45:42;;;;;;;13.60;11.30;;;7.80;99.90;;;;;;5024135;28;20383;-81
2024/03/08 10:48:33;;;;;;;13.80;11.75;;;8.10;99.90;;;;;;5039500;28;20402;-81
2024/03/08 10:51:01;;;;;;;14.50;10.75;;;7.80;99.90;;;;;;5021206;28;20748;-84
2024/03/08 10:53:31;;;;;;;11.63;9.90;;;8.00;99.90;;;;;;5039398;28;20462;-82
2024/03/08 10:55:57;;;;;;;16.92;10.77;;;8.00;99.90;;;;;;5039098;28;20380;-82
2024/03/08 10:58:27;;;;;;;12.13;10.75;;;8.00;99.90;;;;;;5021390;28;20545;-82
2024/03/08 11:00:53;;;;;;;15.68;11.57;;;8.20;99.90;;;;;;5039176;28;20391;-81
2024/03/08 11:03:43;;;;;;;13.68;10.65;;;7.80;99.90;;;;;;5038033;28;20387;-82
2024/03/08 11:06:18;;;;;;;15.65;11.65;;;8.40;99.90;;;;;;5020094;28;20415;-82
2024/03/08 11:08:45;;;;;;;13.60;10.55;;;8.50;99.90;;;;;;5022838;28;20398;-81
2024/03/08 11:11:32;;;;;;;13.67;11.47;;;8.60;99.90;;;;;;5026367;28;20472;-81
2024/03/08 11:13:58;;;;;;;15.95;10.60;;;8.80;99.90;;;;;;5060769;28;20383;-80
2024/03/08 11:16:43;;;;;;;14.90;10.80;;;8.90;99.90;;;;;;5043109;28;20421;-81
2024/03/08 11:19:10;;;;;;;13.95;10.60;;;8.90;99.90;;;;;;5051302;28;20417;-82
2024/03/08 11:21:39;;;;;;;13.60;10.40;;;9.40;99.90;;;;;;5016482;28;20930;-82
2024/03/08 11:24:16;;;;;;;12.95;11.25;;;9.50;99.90;;;;;;5015707;28;20758;-81
2024/03/08 11:26:42;;;;;;;13.80;11.18;;;9.50;99.90;;;;;;5036544;28;20470;-82
2024/03/08 11:29:36;;;;;;;13.20;10.20;;;9.60;99.90;;;;;;5020074;28;20938;-81
2024/03/08 11:32:11;;;;;;;13.30;10.53;;;9.70;99.90;;;;;;5019533;28;20401;-81
2024/03/08 11:34:39;;;;;;;13.63;11.07;;;9.80;99.90;;;;;;5020474;28;20398;-81
2024/03/08 11:37:09;;;;;;;13.10;10.50;;;10.20;99.90;;;;;;5019839;28;20798;-81
2024/03/08 11:39:37;;;;;;;12.25;10.77;;;11.10;99.90;;;;;;5020625;28;20397;-82
2024/03/08 11:42:02;;;;;;;11.23;9.60;;;11.50;99.90;;;;;;5043384;28;20435;-83
2024/03/08 11:44:28;;;;;;;11.60;9.57;;;11.50;99.90;;;;;;5024924;28;20482;-83
2024/03/08 11:46:54;;;;;;;11.43;9.80;;;11.80;99.90;;;;;;5025479;28;20411;-81
2024/03/08 11:49:20;;;;;;;11.27;9.00;;;12.50;99.90;;;;;;5024835;28;20390;-82
2024/03/08 11:51:47;;;;;;;12.40;10.30;;;12.80;99.90;;;;;;5042681;28;20956;-82
2024/03/08 11:54:13;;;;;;;11.85;9.93;;;12.60;99.90;;;;;;5033875;28;20387;-81
2024/03/08 11:56:40;;;;;;;11.60;10.35;;;12.70;99.90;;;;;;5056997;28;20372;-80
2024/03/08 11:59:10;;;;;;;12.25;10.85;;;14.00;99.90;;;;;;5051517;28;20375;-82
2024/03/08 12:01:36;;;;;;;12.05;10.23;;;14.20;99.90;;;;;;5045942;28;20409;-82
2024/03/08 12:04:01;;;;;;;11.50;10.40;;;13.80;99.90;;;;;;5044213;28;20411;-82
2024/03/08 12:06:39;;;;;;;11.50;10.30;;;13.50;99.90;;;;;;5025911;28;20379;-81
2024/03/08 12:09:09;;;;;;;12.63;11.32;;;14.30;99.90;;;;;;5043204;28;20385;-83
2024/03/08 12:11:35;;;;;;;11.80;10.55;;;14.80;99.90;;;;;;5025008;28;20402;-83
2024/03/08 12:14:01;;;;;;;12.68;11.38;;;14.00;99.90;;;;;;5025179;28;20379;-82
2024/03/08 12:16:27;;;;;;;12.38;11.18;;;13.10;99.90;;;;;;5023373;28;20388;-82
2024/03/08 12:18:53;;;;;;;12.10;10.20;;;13.20;99.90;;;;;;5095017;23;20529;-82
2024/03/08 12:21:25;;;;;;;13.23;11.30;;;13.90;99.90;;;;;;5079953;28;20387;-82
2024/03/08 12:24:04;;;;;;;11.75;10.55;;;15.30;99.90;;;;;;5080865;28;20515;-82
2024/03/08 12:26:32;;;;;;;13.35;11.63;;;13.90;99.90;;;;;;5054365;28;20888;-82
2024/03/08 12:29:20;;;;;;;16.00;11.90;;;13.30;99.90;;;;;;5056069;28;20895;-80
2024/03/08 12:31:47;;;;;;;13.43;11.50;;;14.80;99.90;;;;;;5057755;28;20416;-82
2024/03/08 12:34:14;;;;;;;12.13;10.93;;;13.40;99.90;;;;;;5054151;28;20404;-82
2024/03/08 12:36:58;;;;;;;12.20;10.90;;;12.80;99.90;;;;;;5070479;28;20393;-82
2024/03/08 12:39:26;;;;;;;12.50;11.30;;;13.50;99.90;;;;;;5070988;28;20920;-82
2024/03/08 12:41:56;;;;;;;12.27;10.98;;;13.60;99.90;;;;;;5053230;28;20446;-82